RYR363C LEMI-EGHH
Flight info
| Callsign | RYR363C |
|---|---|
| Flight time | N/A |
| Altitude | 36000 |
| Route | ALT N851 MITOS N608 COMPI Y90 USKAR DCT MOPAS DCT GIROM DCT AGN DCT SECHE DCT UVELI DCT CNA DCT MANAK UY110 ORIST Y110 THRED |
| Aircraft | B738/M-SDE2E3FGHIRWXY/LB1 |
Departure
| Time | 2026-04-17 14:24 |
|---|---|
| Airport | Region of Murcia International Airport (LEMI) |
Arrival
| Time | N/A |
|---|---|
| Airport | Bournemouth Airport (EGHH) |
| Time | Latitude | Longitude | Altitude | Speed | Heading |
|---|---|---|---|---|---|
| 2026-04-17 13:48 | 37.80404 | -1.13060 | 640 ft | 0 kts | 315° |
| 2026-04-17 14:12 | 37.80400 | -1.13056 | 640 ft | 2 kts | 315° |
| 2026-04-17 14:12 | 37.80389 | -1.13041 | 640 ft | 2 kts | 314° |
| 2026-04-17 14:13 | 37.80367 | -1.13009 | 640 ft | 2 kts | 304° |
| 2026-04-17 14:13 | 37.80360 | -1.12991 | 641 ft | 2 kts | 268° |
| 2026-04-17 14:13 | 37.80365 | -1.12975 | 640 ft | 1 kts | 227° |
| 2026-04-17 14:13 | 37.80366 | -1.12973 | 640 ft | 0 kts | 226° |
| 2026-04-17 14:19 | 37.80334 | -1.13017 | 640 ft | 17 kts | 226° |
| 2026-04-17 14:20 | 37.80250 | -1.13120 | 640 ft | 21 kts | 225° |
| 2026-04-17 14:20 | 37.80165 | -1.13135 | 642 ft | 16 kts | 146° |
| 2026-04-17 14:20 | 37.80071 | -1.13108 | 640 ft | 18 kts | 213° |
| 2026-04-17 14:20 | 37.80001 | -1.13192 | 640 ft | 16 kts | 225° |
| 2026-04-17 14:21 | 37.79904 | -1.13318 | 640 ft | 24 kts | 225° |
| 2026-04-17 14:21 | 37.79817 | -1.13425 | 640 ft | 14 kts | 228° |
| 2026-04-17 14:21 | 37.79728 | -1.13540 | 640 ft | 22 kts | 225° |
| 2026-04-17 14:21 | 37.79620 | -1.13681 | 640 ft | 16 kts | 225° |
| 2026-04-17 14:22 | 37.79539 | -1.13777 | 640 ft | 15 kts | 206° |
| 2026-04-17 14:22 | 37.79499 | -1.13770 | 640 ft | 8 kts | 151° |
| 2026-04-17 14:22 | 37.79470 | -1.13741 | 640 ft | 0 kts | 136° |
| 2026-04-17 14:23 | 37.79463 | -1.13733 | 640 ft | 7 kts | 136° |
| 2026-04-17 14:23 | 37.79424 | -1.13639 | 638 ft | 17 kts | 81° |
| 2026-04-17 14:23 | 37.79494 | -1.13532 | 643 ft | 20 kts | 46° |
| 2026-04-17 14:24 | 37.79672 | -1.13304 | 639 ft | 72 kts | 45° |
| 2026-04-17 14:24 | 37.80232 | -1.12591 | 638 ft | 154 kts | 45° |
| 2026-04-17 14:24 | 37.81098 | -1.11526 | 1214 ft | 179 kts | 46° |
| 2026-04-17 14:24 | 37.82030 | -1.10345 | 2066 ft | 200 kts | 48° |
| 2026-04-17 14:25 | 37.83057 | -1.09068 | 2975 ft | 210 kts | 44° |
| 2026-04-17 14:25 | 37.84110 | -1.07802 | 3917 ft | 208 kts | 43° |
| 2026-04-17 14:25 | 37.85158 | -1.06551 | 4854 ft | 206 kts | 43° |
| 2026-04-17 14:25 | 37.86206 | -1.05303 | 5631 ft | 212 kts | 42° |
| 2026-04-17 14:26 | 37.87348 | -1.03947 | 5885 ft | 241 kts | 43° |
| 2026-04-17 14:26 | 37.88649 | -1.02406 | 6234 ft | 268 kts | 42° |
| 2026-04-17 14:26 | 37.89991 | -1.00813 | 7181 ft | 268 kts | 43° |
| 2026-04-17 14:26 | 37.91361 | -0.99186 | 8062 ft | 270 kts | 42° |
| 2026-04-17 14:27 | 37.92745 | -0.97543 | 8946 ft | 275 kts | 42° |
| 2026-04-17 14:27 | 37.94146 | -0.95881 | 9880 ft | 277 kts | 42° |
| 2026-04-17 14:27 | 37.95574 | -0.94186 | 10581 ft | 287 kts | 41° |
| 2026-04-17 14:27 | 37.97086 | -0.92392 | 10810 ft | 313 kts | 41° |
| 2026-04-17 14:28 | 37.98719 | -0.90456 | 11273 ft | 328 kts | 42° |
| 2026-04-17 14:28 | 38.00399 | -0.88460 | 12013 ft | 332 kts | 41° |
| 2026-04-17 14:28 | 38.02087 | -0.86450 | 12840 ft | 335 kts | 41° |
| 2026-04-17 14:28 | 38.03801 | -0.84409 | 13555 ft | 342 kts | 42° |
| 2026-04-17 14:29 | 38.05541 | -0.82335 | 14333 ft | 343 kts | 41° |
| 2026-04-17 14:29 | 38.07288 | -0.80252 | 15063 ft | 348 kts | 42° |
| 2026-04-17 14:29 | 38.09071 | -0.78127 | 15717 ft | 353 kts | 43° |
| 2026-04-17 14:29 | 38.10864 | -0.75988 | 16527 ft | 355 kts | 43° |
| 2026-04-17 14:30 | 38.12683 | -0.73821 | 17121 ft | 362 kts | 42° |
| 2026-04-17 14:30 | 38.14535 | -0.71618 | 17790 ft | 367 kts | 42° |
| 2026-04-17 14:30 | 38.16408 | -0.69392 | 18488 ft | 371 kts | 42° |
| 2026-04-17 14:30 | 38.18302 | -0.67139 | 19097 ft | 374 kts | 42° |
| 2026-04-17 14:31 | 38.20206 | -0.64871 | 19721 ft | 377 kts | 42° |
| 2026-04-17 14:31 | 38.22123 | -0.62587 | 20335 ft | 380 kts | 42° |
| 2026-04-17 14:31 | 38.24062 | -0.60273 | 20921 ft | 384 kts | 42° |
| 2026-04-17 14:31 | 38.26039 | -0.57972 | 21483 ft | 387 kts | 38° |
| 2026-04-17 14:32 | 38.28304 | -0.56119 | 22053 ft | 389 kts | 25° |
| 2026-04-17 14:32 | 38.30847 | -0.54908 | 22605 ft | 392 kts | 14° |
| 2026-04-17 14:32 | 38.33499 | -0.54058 | 23214 ft | 394 kts | 13° |
| 2026-04-17 14:32 | 38.36179 | -0.53221 | 23701 ft | 399 kts | 13° |
| 2026-04-17 14:33 | 38.38889 | -0.52374 | 24186 ft | 401 kts | 13° |
| 2026-04-17 14:33 | 38.41606 | -0.51519 | 24653 ft | 404 kts | 13° |
| 2026-04-17 14:33 | 38.44347 | -0.50646 | 25068 ft | 408 kts | 13° |
| 2026-04-17 14:33 | 38.47100 | -0.49762 | 25545 ft | 409 kts | 13° |
| 2026-04-17 14:34 | 38.49842 | -0.48875 | 25908 ft | 414 kts | 14° |
| 2026-04-17 14:34 | 38.52637 | -0.47968 | 26399 ft | 415 kts | 14° |
| 2026-04-17 14:34 | 38.55484 | -0.47041 | 26806 ft | 418 kts | 14° |
| 2026-04-17 14:34 | 38.58272 | -0.46132 | 27209 ft | 421 kts | 14° |
| 2026-04-17 14:35 | 38.61158 | -0.45190 | 27631 ft | 424 kts | 13° |
| 2026-04-17 14:35 | 38.63989 | -0.44265 | 28012 ft | 427 kts | 13° |
| 2026-04-17 14:35 | 38.66877 | -0.43320 | 28400 ft | 430 kts | 13° |
| 2026-04-17 14:35 | 38.69789 | -0.42367 | 28723 ft | 434 kts | 13° |
| 2026-04-17 14:36 | 38.72722 | -0.41407 | 29122 ft | 436 kts | 13° |
| 2026-04-17 14:36 | 38.75667 | -0.40442 | 29498 ft | 439 kts | 13° |
| 2026-04-17 14:36 | 38.78637 | -0.39468 | 29871 ft | 441 kts | 13° |
| 2026-04-17 14:36 | 38.81618 | -0.38490 | 30197 ft | 444 kts | 13° |
| 2026-04-17 14:37 | 38.84616 | -0.37505 | 30480 ft | 446 kts | 13° |
| 2026-04-17 14:37 | 38.87631 | -0.36513 | 30773 ft | 449 kts | 13° |
| 2026-04-17 14:37 | 38.90666 | -0.35514 | 31062 ft | 451 kts | 13° |
| 2026-04-17 14:37 | 38.93712 | -0.34511 | 31330 ft | 453 kts | 12° |
| 2026-04-17 14:38 | 38.96769 | -0.33502 | 31648 ft | 454 kts | 13° |
| 2026-04-17 14:38 | 38.99814 | -0.32497 | 32066 ft | 452 kts | 13° |
| 2026-04-17 14:38 | 39.02858 | -0.31491 | 32486 ft | 450 kts | 12° |
| 2026-04-17 14:38 | 39.05890 | -0.30488 | 32840 ft | 450 kts | 13° |
| 2026-04-17 14:39 | 39.08929 | -0.29482 | 33167 ft | 451 kts | 13° |
| 2026-04-17 14:39 | 39.11964 | -0.28477 | 33498 ft | 451 kts | 13° |
| 2026-04-17 14:39 | 39.15000 | -0.27470 | 33860 ft | 450 kts | 12° |
| 2026-04-17 14:39 | 39.18030 | -0.26465 | 34194 ft | 450 kts | 13° |
| 2026-04-17 14:40 | 39.21056 | -0.25461 | 34498 ft | 449 kts | 13° |
| 2026-04-17 14:40 | 39.24079 | -0.24456 | 34814 ft | 448 kts | 13° |
| 2026-04-17 14:40 | 39.27094 | -0.23453 | 35120 ft | 447 kts | 13° |
| 2026-04-17 14:40 | 39.30103 | -0.22451 | 35401 ft | 447 kts | 13° |
| 2026-04-17 14:41 | 39.33072 | -0.21462 | 35684 ft | 446 kts | 13° |
| 2026-04-17 14:41 | 39.36077 | -0.20459 | 35985 ft | 445 kts | 12° |
| 2026-04-17 14:41 | 39.39087 | -0.19454 | 36133 ft | 449 kts | 12° |
| 2026-04-17 14:41 | 39.42124 | -0.18441 | 36124 ft | 453 kts | 12° |
| 2026-04-17 14:42 | 39.48212 | -0.16404 | 36115 ft | 450 kts | 12° |
| 2026-04-17 14:42 | 39.54210 | -0.14391 | 36123 ft | 444 kts | 12° |
| 2026-04-17 14:43 | 39.60192 | -0.12382 | 36133 ft | 444 kts | 12° |
| 2026-04-17 14:43 | 39.66175 | -0.10371 | 36129 ft | 445 kts | 12° |
| 2026-04-17 14:44 | 39.72173 | -0.08349 | 36130 ft | 446 kts | 12° |
| 2026-04-17 14:44 | 39.78176 | -0.06323 | 36126 ft | 446 kts | 12° |
| 2026-04-17 14:45 | 39.84198 | -0.04286 | 36128 ft | 447 kts | 12° |
| 2026-04-17 14:45 | 39.90225 | -0.02244 | 36128 ft | 448 kts | 12° |
| 2026-04-17 14:46 | 39.96263 | -0.00194 | 36135 ft | 449 kts | 12° |
| 2026-04-17 14:46 | 40.02263 | 0.01846 | 36128 ft | 449 kts | 12° |
| 2026-04-17 14:47 | 40.08305 | 0.03905 | 36151 ft | 448 kts | 12° |
| 2026-04-17 14:47 | 40.14341 | 0.05966 | 36157 ft | 448 kts | 12° |
| 2026-04-17 14:48 | 40.20373 | 0.08028 | 36163 ft | 448 kts | 12° |
| 2026-04-17 14:48 | 40.26405 | 0.10095 | 36164 ft | 448 kts | 12° |
| 2026-04-17 14:49 | 40.32429 | 0.12162 | 36153 ft | 448 kts | 12° |
| 2026-04-17 14:49 | 40.38449 | 0.14232 | 36151 ft | 447 kts | 12° |
| 2026-04-17 14:50 | 40.44456 | 0.16302 | 36143 ft | 447 kts | 12° |
| 2026-04-17 14:50 | 40.50464 | 0.18375 | 36139 ft | 446 kts | 12° |
| 2026-04-17 14:51 | 40.56469 | 0.20452 | 36123 ft | 446 kts | 12° |
| 2026-04-17 14:51 | 40.62465 | 0.22529 | 36124 ft | 446 kts | 12° |
| 2026-04-17 14:52 | 40.68458 | 0.24608 | 36118 ft | 445 kts | 12° |
| 2026-04-17 14:52 | 40.74455 | 0.26693 | 36112 ft | 446 kts | 12° |
| 2026-04-17 14:53 | 40.80455 | 0.28783 | 36115 ft | 446 kts | 12° |
| 2026-04-17 14:53 | 40.86461 | 0.30880 | 36119 ft | 447 kts | 12° |
| 2026-04-17 14:54 | 40.92436 | 0.32968 | 36125 ft | 447 kts | 12° |
| 2026-04-17 14:54 | 40.98456 | 0.35077 | 36111 ft | 448 kts | 12° |
| 2026-04-17 14:55 | 41.04482 | 0.37192 | 36110 ft | 448 kts | 12° |
| 2026-04-17 14:55 | 41.10504 | 0.39310 | 36113 ft | 448 kts | 12° |
| 2026-04-17 14:56 | 41.16529 | 0.41433 | 36107 ft | 448 kts | 12° |
| 2026-04-17 14:56 | 41.22551 | 0.43559 | 36103 ft | 448 kts | 12° |
| 2026-04-17 14:57 | 41.28565 | 0.45686 | 36094 ft | 447 kts | 12° |
| 2026-04-17 14:57 | 41.34572 | 0.47814 | 36099 ft | 446 kts | 12° |
| 2026-04-17 14:58 | 41.40566 | 0.49942 | 36098 ft | 446 kts | 11° |
| 2026-04-17 14:58 | 41.46563 | 0.52075 | 36091 ft | 445 kts | 11° |
| 2026-04-17 14:59 | 41.52548 | 0.54208 | 36118 ft | 445 kts | 11° |
| 2026-04-17 14:59 | 41.58529 | 0.56343 | 36115 ft | 445 kts | 11° |
| 2026-04-17 15:00 | 41.64507 | 0.58482 | 36118 ft | 445 kts | 11° |
| 2026-04-17 15:00 | 41.70487 | 0.60625 | 36133 ft | 445 kts | 11° |
| 2026-04-17 15:01 | 41.76463 | 0.62771 | 36129 ft | 445 kts | 11° |
| 2026-04-17 15:01 | 41.82444 | 0.64923 | 36126 ft | 445 kts | 11° |
| 2026-04-17 15:02 | 41.88434 | 0.67082 | 36122 ft | 447 kts | 11° |
| 2026-04-17 15:02 | 41.94410 | 0.69240 | 36116 ft | 448 kts | 11° |
| 2026-04-17 15:03 | 42.00432 | 0.71420 | 36110 ft | 449 kts | 11° |
| 2026-04-17 15:03 | 42.06471 | 0.73610 | 36108 ft | 450 kts | 11° |
| 2026-04-17 15:04 | 42.12521 | 0.75808 | 36107 ft | 450 kts | 11° |
| 2026-04-17 15:04 | 42.18571 | 0.78012 | 36111 ft | 450 kts | 11° |
| 2026-04-17 15:05 | 42.24616 | 0.80217 | 36126 ft | 450 kts | 11° |
| 2026-04-17 15:05 | 42.30645 | 0.82421 | 36122 ft | 449 kts | 11° |
| 2026-04-17 15:06 | 42.36661 | 0.84624 | 36133 ft | 447 kts | 11° |
| 2026-04-17 15:06 | 42.42659 | 0.86828 | 36123 ft | 445 kts | 11° |
| 2026-04-17 15:07 | 42.48612 | 0.89018 | 36151 ft | 443 kts | 12° |
| 2026-04-17 15:07 | 42.54568 | 0.91209 | 36156 ft | 443 kts | 11° |
| 2026-04-17 15:08 | 42.59546 | 0.93046 | 36159 ft | 442 kts | 11° |
| 2026-04-17 15:08 | 42.65494 | 0.95246 | 36161 ft | 444 kts | 11° |
| 2026-04-17 15:09 | 42.71453 | 0.97454 | 36163 ft | 445 kts | 11° |
| 2026-04-17 15:09 | 42.77418 | 0.99367 | 36148 ft | 441 kts | 2° |
| 2026-04-17 15:10 | 42.83489 | 0.99207 | 36163 ft | 436 kts | 351° |
| 2026-04-17 15:11 | 42.92556 | 0.98092 | 36162 ft | 437 kts | 351° |
| 2026-04-17 15:11 | 42.98617 | 0.97387 | 36164 ft | 437 kts | 351° |
| 2026-04-17 15:12 | 43.04689 | 0.96710 | 36156 ft | 438 kts | 351° |
| 2026-04-17 15:12 | 43.10770 | 0.96040 | 36150 ft | 438 kts | 351° |
| 2026-04-17 15:13 | 43.16851 | 0.95369 | 36149 ft | 438 kts | 351° |
| 2026-04-17 15:13 | 43.22931 | 0.94695 | 36154 ft | 438 kts | 351° |
| 2026-04-17 15:14 | 43.29007 | 0.94020 | 36145 ft | 438 kts | 351° |
| 2026-04-17 15:14 | 43.35077 | 0.93344 | 36142 ft | 438 kts | 351° |
| 2026-04-17 15:15 | 43.41141 | 0.92667 | 36140 ft | 437 kts | 351° |
| 2026-04-17 15:15 | 43.47202 | 0.91989 | 36147 ft | 437 kts | 351° |
| 2026-04-17 15:16 | 43.53260 | 0.91311 | 36145 ft | 436 kts | 351° |
| 2026-04-17 15:16 | 43.59307 | 0.90632 | 36140 ft | 436 kts | 351° |
| 2026-04-17 15:17 | 43.65352 | 0.89952 | 36145 ft | 436 kts | 351° |
| 2026-04-17 15:17 | 43.71401 | 0.89270 | 36137 ft | 436 kts | 351° |
| 2026-04-17 15:18 | 43.77436 | 0.88588 | 36147 ft | 435 kts | 351° |
| 2026-04-17 15:18 | 43.83473 | 0.87904 | 36152 ft | 435 kts | 351° |
| 2026-04-17 15:19 | 43.89434 | 0.86729 | 36143 ft | 429 kts | 339° |
| 2026-04-17 15:19 | 43.94883 | 0.83550 | 36141 ft | 424 kts | 330° |
| 2026-04-17 15:20 | 44.00214 | 0.80012 | 36131 ft | 425 kts | 330° |
| 2026-04-17 15:20 | 44.05523 | 0.76526 | 36141 ft | 425 kts | 331° |
| 2026-04-17 15:21 | 44.10887 | 0.73039 | 36137 ft | 426 kts | 331° |
| 2026-04-17 15:21 | 44.16260 | 0.69552 | 36139 ft | 426 kts | 331° |
| 2026-04-17 15:22 | 44.21638 | 0.66056 | 36136 ft | 427 kts | 331° |
| 2026-04-17 15:22 | 44.27026 | 0.62545 | 36127 ft | 428 kts | 331° |
| 2026-04-17 15:23 | 44.32414 | 0.59027 | 36142 ft | 428 kts | 331° |
| 2026-04-17 15:23 | 44.37808 | 0.55497 | 36137 ft | 428 kts | 331° |
| 2026-04-17 15:24 | 44.43203 | 0.51960 | 36150 ft | 428 kts | 330° |
| 2026-04-17 15:24 | 44.48595 | 0.48402 | 36142 ft | 428 kts | 330° |
| 2026-04-17 15:25 | 44.53978 | 0.44826 | 36133 ft | 428 kts | 330° |
| 2026-04-17 15:25 | 44.59350 | 0.41252 | 36137 ft | 427 kts | 330° |
| 2026-04-17 15:26 | 44.64715 | 0.37676 | 36146 ft | 427 kts | 330° |
| 2026-04-17 15:26 | 44.70084 | 0.34091 | 36134 ft | 427 kts | 330° |
| 2026-04-17 15:27 | 44.75444 | 0.30504 | 36132 ft | 426 kts | 330° |
| 2026-04-17 15:27 | 44.80798 | 0.26914 | 36134 ft | 427 kts | 330° |
| 2026-04-17 15:28 | 44.86121 | 0.23337 | 36137 ft | 426 kts | 330° |
| 2026-04-17 15:28 | 44.91478 | 0.19730 | 36136 ft | 427 kts | 330° |
| 2026-04-17 15:29 | 44.96838 | 0.16113 | 36137 ft | 427 kts | 330° |
| 2026-04-17 15:29 | 45.02200 | 0.12489 | 36148 ft | 427 kts | 330° |
| 2026-04-17 15:30 | 45.07562 | 0.08858 | 36139 ft | 428 kts | 330° |
| 2026-04-17 15:30 | 45.12929 | 0.05219 | 36141 ft | 428 kts | 330° |
| 2026-04-17 15:31 | 45.18295 | 0.01572 | 36138 ft | 428 kts | 330° |
| 2026-04-17 15:31 | 45.23662 | -0.02084 | 36140 ft | 428 kts | 329° |
| 2026-04-17 15:32 | 45.29034 | -0.05751 | 36140 ft | 428 kts | 329° |
| 2026-04-17 15:32 | 45.34370 | -0.09401 | 36135 ft | 429 kts | 329° |
| 2026-04-17 15:33 | 45.39748 | -0.13088 | 36147 ft | 429 kts | 329° |
| 2026-04-17 15:33 | 45.45136 | -0.16789 | 36149 ft | 430 kts | 329° |
| 2026-04-17 15:34 | 45.50522 | -0.20497 | 36145 ft | 430 kts | 329° |
| 2026-04-17 15:34 | 45.55908 | -0.24214 | 36157 ft | 430 kts | 329° |
| 2026-04-17 15:35 | 45.61302 | -0.27943 | 36166 ft | 431 kts | 329° |
| 2026-04-17 15:35 | 45.66618 | -0.31837 | 36151 ft | 426 kts | 321° |
| 2026-04-17 15:36 | 45.71272 | -0.36974 | 36134 ft | 422 kts | 316° |
| 2026-04-17 15:36 | 45.75848 | -0.42239 | 36139 ft | 422 kts | 316° |
| 2026-04-17 15:37 | 45.80438 | -0.47478 | 36141 ft | 422 kts | 316° |
| 2026-04-17 15:37 | 45.85039 | -0.52702 | 36138 ft | 422 kts | 317° |
| 2026-04-17 15:38 | 45.89640 | -0.57927 | 36140 ft | 422 kts | 317° |
| 2026-04-17 15:38 | 45.94236 | -0.63156 | 36138 ft | 421 kts | 316° |
| 2026-04-17 15:39 | 45.98830 | -0.68397 | 36150 ft | 421 kts | 316° |
| 2026-04-17 15:39 | 46.03415 | -0.73638 | 36141 ft | 421 kts | 316° |
| 2026-04-17 15:40 | 46.07999 | -0.78891 | 36145 ft | 421 kts | 316° |
| 2026-04-17 15:40 | 46.12581 | -0.84153 | 36143 ft | 421 kts | 316° |
| 2026-04-17 15:41 | 46.17168 | -0.89432 | 36154 ft | 422 kts | 316° |
| 2026-04-17 15:41 | 46.21754 | -0.94720 | 36155 ft | 423 kts | 316° |
| 2026-04-17 15:42 | 46.26320 | -0.99990 | 36157 ft | 423 kts | 316° |
| 2026-04-17 15:42 | 46.30916 | -1.05302 | 36154 ft | 423 kts | 316° |
| 2026-04-17 15:43 | 46.35516 | -1.10633 | 36156 ft | 424 kts | 316° |
| 2026-04-17 15:43 | 46.40107 | -1.15980 | 36159 ft | 424 kts | 315° |
| 2026-04-17 15:44 | 46.44712 | -1.21346 | 36163 ft | 425 kts | 315° |
| 2026-04-17 15:44 | 46.49318 | -1.26717 | 36157 ft | 425 kts | 315° |
| 2026-04-17 15:45 | 46.53929 | -1.32105 | 36160 ft | 425 kts | 315° |
| 2026-04-17 15:45 | 46.58540 | -1.37505 | 36157 ft | 427 kts | 316° |
| 2026-04-17 15:46 | 46.63696 | -1.41968 | 36179 ft | 436 kts | 328° |
| 2026-04-17 15:46 | 46.69197 | -1.45737 | 36154 ft | 437 kts | 329° |
| 2026-04-17 15:47 | 46.74686 | -1.49557 | 36156 ft | 437 kts | 328° |
| 2026-04-17 15:47 | 46.80157 | -1.53433 | 36156 ft | 437 kts | 328° |
| 2026-04-17 15:48 | 46.85669 | -1.57211 | 36144 ft | 442 kts | 334° |
| 2026-04-17 15:48 | 46.91755 | -1.59005 | 36153 ft | 453 kts | 350° |
| 2026-04-17 15:49 | 46.98061 | -1.59543 | 36151 ft | 454 kts | 351° |
| 2026-04-17 15:49 | 47.04364 | -1.60099 | 36142 ft | 454 kts | 351° |
| 2026-04-17 15:50 | 47.10658 | -1.60739 | 36142 ft | 453 kts | 350° |
| 2026-04-17 15:50 | 47.16938 | -1.61398 | 36177 ft | 453 kts | 350° |
| 2026-04-17 15:51 | 47.23208 | -1.62229 | 36163 ft | 452 kts | 349° |
| 2026-04-17 15:51 | 47.29472 | -1.63102 | 36156 ft | 452 kts | 349° |
| 2026-04-17 15:52 | 47.35702 | -1.63944 | 36154 ft | 452 kts | 349° |
| 2026-04-17 15:52 | 47.42002 | -1.64837 | 36159 ft | 452 kts | 348° |
| 2026-04-17 15:53 | 47.48232 | -1.65737 | 36147 ft | 452 kts | 348° |
| 2026-04-17 15:53 | 47.54492 | -1.66638 | 36157 ft | 452 kts | 348° |
| 2026-04-17 15:54 | 47.60766 | -1.67537 | 36177 ft | 453 kts | 348° |
| 2026-04-17 15:54 | 47.67048 | -1.68439 | 36165 ft | 454 kts | 348° |
| 2026-04-17 15:55 | 47.73333 | -1.69343 | 36164 ft | 454 kts | 348° |
| 2026-04-17 15:55 | 47.79625 | -1.70251 | 36182 ft | 454 kts | 349° |
| 2026-04-17 15:56 | 47.85920 | -1.71161 | 36167 ft | 455 kts | 349° |
| 2026-04-17 15:56 | 47.91164 | -1.71920 | 36161 ft | 455 kts | 349° |
| 2026-04-17 15:57 | 47.97459 | -1.72832 | 36161 ft | 455 kts | 349° |
| 2026-04-17 15:57 | 48.03761 | -1.73747 | 36163 ft | 455 kts | 349° |
| 2026-04-17 15:58 | 48.10088 | -1.74454 | 36155 ft | 458 kts | 353° |
| 2026-04-17 15:58 | 48.16460 | -1.74499 | 36161 ft | 458 kts | 355° |
| 2026-04-17 15:59 | 48.22839 | -1.74453 | 36173 ft | 458 kts | 355° |
| 2026-04-17 15:59 | 48.29213 | -1.74478 | 36111 ft | 460 kts | 354° |
| 2026-04-17 16:00 | 48.35601 | -1.74545 | 36066 ft | 454 kts | 354° |
| 2026-04-17 16:00 | 48.38732 | -1.74580 | 35712 ft | 447 kts | 354° |
| 2026-04-17 16:00 | 48.41847 | -1.74618 | 35139 ft | 448 kts | 354° |
| 2026-04-17 16:00 | 48.44976 | -1.74660 | 34469 ft | 453 kts | 354° |
| 2026-04-17 16:01 | 48.48139 | -1.74703 | 33718 ft | 457 kts | 354° |
| 2026-04-17 16:01 | 48.51289 | -1.74743 | 32983 ft | 459 kts | 354° |
| 2026-04-17 16:01 | 48.54491 | -1.74781 | 32273 ft | 461 kts | 354° |
| 2026-04-17 16:01 | 48.57698 | -1.74817 | 31608 ft | 462 kts | 354° |
| 2026-04-17 16:02 | 48.60915 | -1.74853 | 30926 ft | 462 kts | 354° |
| 2026-04-17 16:02 | 48.64136 | -1.74890 | 30241 ft | 464 kts | 354° |
| 2026-04-17 16:02 | 48.67367 | -1.74928 | 29357 ft | 466 kts | 354° |
| 2026-04-17 16:02 | 48.70608 | -1.74966 | 28453 ft | 468 kts | 354° |
| 2026-04-17 16:03 | 48.73871 | -1.75004 | 27547 ft | 469 kts | 355° |
| 2026-04-17 16:03 | 48.77145 | -1.75042 | 26638 ft | 471 kts | 355° |
| 2026-04-17 16:03 | 48.80428 | -1.75080 | 25749 ft | 472 kts | 355° |
| 2026-04-17 16:03 | 48.83709 | -1.75116 | 25071 ft | 469 kts | 355° |
| 2026-04-17 16:04 | 48.86949 | -1.75151 | 24507 ft | 462 kts | 355° |
| 2026-04-17 16:04 | 48.90143 | -1.75188 | 23951 ft | 457 kts | 355° |
| 2026-04-17 16:04 | 48.93302 | -1.75192 | 23333 ft | 451 kts | 356° |
| 2026-04-17 16:04 | 48.96427 | -1.75099 | 22678 ft | 447 kts | 357° |
| 2026-04-17 16:05 | 48.99521 | -1.74963 | 21978 ft | 443 kts | 357° |
| 2026-04-17 16:05 | 49.02596 | -1.74818 | 21277 ft | 440 kts | 357° |
| 2026-04-17 16:05 | 49.05642 | -1.74680 | 20639 ft | 437 kts | 357° |
| 2026-04-17 16:05 | 49.08668 | -1.74550 | 20021 ft | 433 kts | 356° |
| 2026-04-17 16:06 | 49.11563 | -1.74434 | 19375 ft | 431 kts | 356° |
| 2026-04-17 16:06 | 49.14367 | -1.74325 | 18813 ft | 428 kts | 356° |
| 2026-04-17 16:06 | 49.17336 | -1.74212 | 18195 ft | 425 kts | 356° |
| 2026-04-17 16:06 | 49.20271 | -1.74101 | 17573 ft | 420 kts | 356° |
| 2026-04-17 16:07 | 49.23181 | -1.73991 | 16966 ft | 416 kts | 356° |
| 2026-04-17 16:07 | 49.26056 | -1.73882 | 16368 ft | 412 kts | 356° |
| 2026-04-17 16:07 | 49.28874 | -1.73775 | 15886 ft | 408 kts | 356° |
| 2026-04-17 16:07 | 49.31306 | -1.73684 | 15767 ft | 404 kts | 356° |
| 2026-04-17 16:08 | 49.34056 | -1.73575 | 15679 ft | 387 kts | 356° |
| 2026-04-17 16:08 | 49.36692 | -1.73470 | 15664 ft | 370 kts | 356° |
| 2026-04-17 16:08 | 49.39212 | -1.73371 | 15661 ft | 355 kts | 355° |
| 2026-04-17 16:08 | 49.41630 | -1.73279 | 15662 ft | 340 kts | 355° |
| 2026-04-17 16:09 | 49.43955 | -1.73191 | 15660 ft | 328 kts | 355° |
| 2026-04-17 16:09 | 49.46188 | -1.73111 | 15675 ft | 325 kts | 354° |
| 2026-04-17 16:09 | 49.48457 | -1.73032 | 15687 ft | 327 kts | 355° |
| 2026-04-17 16:09 | 49.50738 | -1.72949 | 15687 ft | 329 kts | 355° |
| 2026-04-17 16:10 | 49.53028 | -1.72864 | 15700 ft | 330 kts | 355° |
| 2026-04-17 16:10 | 49.55326 | -1.72776 | 15689 ft | 331 kts | 355° |
| 2026-04-17 16:10 | 49.57628 | -1.72688 | 15688 ft | 331 kts | 355° |
| 2026-04-17 16:10 | 49.59922 | -1.72665 | 15682 ft | 328 kts | 349° |
| 2026-04-17 16:11 | 49.62155 | -1.73141 | 15686 ft | 321 kts | 342° |